Time;durP1;ratioP1;P1;durP2;ratioP2;P2;SDS_P1;SDS_P2;PMS_P1;PMS_P2;Temp;Humidity;BMP_temperature;BMP_pressure;BME280_temperature;BME280_humidity;BME280_pressure;Samples;Min_cycle;Max_cycle;Signal;HPM_P1;HPM_P2
2022/03/13 00:00:49;;;;;;;46.28;27.80;;;;;;;-3.72;56.13;96314.66;5027951;28;20417;-60
2022/03/13 00:03:17;;;;;;;52.42;28.00;;;;;;;-3.96;56.37;96295.00;5028706;28;20071;-57
2022/03/13 00:05:45;;;;;;;48.72;26.10;;;;;;;-3.89;56.89;96306.84;5031380;28;20060;-59
2022/03/13 00:08:19;;;;;;;44.00;26.63;;;;;;;-3.85;57.09;96308.59;5031223;28;20073;-58
2022/03/13 00:10:50;;;;;;;38.92;23.75;;;;;;;-4.03;56.15;96295.72;5031323;28;20102;-58
2022/03/13 00:13:18;;;;;;;43.85;24.88;;;;;;;-4.18;56.20;96287.13;5031073;28;20056;-58
2022/03/13 00:15:45;;;;;;;39.80;22.35;;;;;;;-4.18;56.17;96313.97;5030655;28;20037;-61
2022/03/13 00:18:11;;;;;;;36.90;21.38;;;;;;;-4.48;56.88;96262.31;5031142;28;20022;-56
2022/03/13 00:20:38;;;;;;;35.00;18.73;;;;;;;-4.25;55.97;96308.88;5030924;28;20038;-56
2022/03/13 00:23:07;;;;;;;28.38;17.10;;;;;;;-4.43;55.72;96309.44;5030749;28;20033;-57
2022/03/13 00:25:34;;;;;;;28.48;15.43;;;;;;;-4.44;55.25;96311.91;5031035;28;20369;-61
2022/03/13 00:27:59;;;;;;;26.85;14.13;;;;;;;-4.50;55.22;96306.78;5030627;28;20029;-58
2022/03/13 00:30:25;;;;;;;20.90;14.82;;;;;;;-4.56;54.79;96301.63;5031273;28;20037;-59
2022/03/13 00:32:50;;;;;;;26.90;15.57;;;;;;;-4.61;55.68;96299.03;5030524;28;20638;-59
2022/03/13 00:35:16;;;;;;;27.52;16.52;;;;;;;-4.52;54.91;96301.72;5031037;28;20396;-58
2022/03/13 00:37:42;;;;;;;24.80;14.80;;;;;;;-4.61;55.07;96291.47;5030968;28;20493;-54
2022/03/13 00:40:08;;;;;;;25.48;15.85;;;;;;;-4.76;55.27;96273.63;5030576;28;20029;-57
2022/03/13 00:42:34;;;;;;;24.13;15.40;;;;;;;-4.58;55.36;96288.19;5030930;28;20459;-58
2022/03/13 00:45:02;;;;;;;25.58;15.15;;;;;;;-4.65;55.69;96292.28;5030774;28;20087;-61
2022/03/13 00:47:27;;;;;;;23.10;14.50;;;;;;;-4.89;55.91;96260.81;5030619;28;20115;-59
2022/03/13 00:49:53;;;;;;;26.92;15.10;;;;;;;-4.82;56.04;96265.16;5029076;28;20504;-57
2022/03/13 00:52:18;;;;;;;29.08;16.55;;;;;;;-4.66;55.52;96296.44;5030231;28;20064;-56
2022/03/13 00:54:47;;;;;;;25.08;15.18;;;;;;;-4.78;56.03;96301.28;5030489;28;20033;-56
2022/03/13 00:57:13;;;;;;;30.65;15.98;;;;;;;-5.18;56.77;96261.19;5030427;28;20029;-58
2022/03/13 00:59:38;;;;;;;23.98;14.10;;;;;;;-4.95;56.55;96295.97;5030081;28;20632;-61
2022/03/13 01:02:05;;;;;;;28.73;16.67;;;;;;;-5.29;57.03;96251.75;5030035;28;20100;-57
2022/03/13 01:04:30;;;;;;;32.10;15.18;;;;;;;-5.22;56.58;96268.63;5029604;28;20032;-63
2022/03/13 01:06:55;;;;;;;26.98;15.63;;;;;;;-5.29;58.02;96247.56;5030128;28;20467;-62
2022/03/13 01:09:21;;;;;;;29.48;16.95;;;;;;;-5.01;57.35;96285.78;5029967;28;20067;-58
2022/03/13 01:11:46;;;;;;;25.40;15.57;;;;;;;-5.18;56.39;96223.44;5029982;28;20018;-57
2022/03/13 01:14:12;;;;;;;27.35;16.77;;;;;;;-4.65;57.44;96274.66;5030180;28;20049;-53
2022/03/13 01:16:40;;;;;;;31.77;18.83;;;;;;;-4.64;56.68;96259.56;5029160;28;20025;-57
2022/03/13 01:19:07;;;;;;;34.53;17.30;;;;;;;-4.53;56.41;96271.47;5030200;28;20025;-58
2022/03/13 01:21:37;;;;;;;34.30;18.15;;;;;;;-4.48;57.01;96259.81;5029838;28;20029;-58
2022/03/13 01:24:28;;;;;;;32.03;19.48;;;;;;;-4.55;57.24;96265.59;5029681;28;20029;-56
2022/03/13 01:26:58;;;;;;;33.08;19.73;;;;;;;-4.76;56.79;96239.22;5029444;28;20746;-57
2022/03/13 01:29:24;;;;;;;34.50;18.98;;;;;;;-4.69;58.05;96241.03;5029319;28;20025;-58
2022/03/13 01:31:50;;;;;;;33.35;19.75;;;;;;;-4.48;56.91;96255.59;5029522;28;20119;-57
2022/03/13 01:34:44;;;;;;;37.03;20.95;;;;;;;-4.63;56.56;96252.88;5029935;28;20026;-58
2022/03/13 01:37:19;;;;;;;40.13;20.10;;;;;;;-4.87;57.58;96241.59;5029689;28;20452;-60
2022/03/13 01:39:45;;;;;;;36.65;21.85;;;;;;;-5.00;58.48;96244.69;5028880;28;20060;-59
2022/03/13 01:42:11;;;;;;;38.53;22.20;;;;;;;-5.21;57.89;96227.59;5029318;28;20029;-60
2022/03/13 01:44:37;;;;;;;36.75;21.77;;;;;;;-5.45;59.03;96212.91;5029317;28;20049;-57
2022/03/13 01:47:07;;;;;;;35.28;21.15;;;;;;;-5.24;58.44;96250.16;5029206;28;20032;-57
2022/03/13 01:49:33;;;;;;;32.25;19.27;;;;;;;-5.30;58.68;96255.91;5029457;28;20029;-58
2022/03/13 01:51:58;;;;;;;36.83;19.08;;;;;;;-5.45;59.10;96248.94;5028808;28;20029;-60
2022/03/13 01:54:24;;;;;;;32.63;18.95;;;;;;;-5.47;58.63;96239.69;5028804;28;20022;-65
2022/03/13 01:56:49;;;;;;;35.03;18.63;;;;;;;-5.49;59.00;96261.41;5029130;28;20108;-59
2022/03/13 01:59:16;;;;;;;33.20;19.75;;;;;;;-5.66;58.77;96246.00;5029301;28;20185;-62
2022/03/13 02:01:43;;;;;;;37.45;19.75;;;;;;;-5.68;60.44;96280.31;5028985;28;20378;-58
2022/03/13 02:04:11;;;;;;;31.45;18.75;;;;;;;-5.80;60.32;96273.38;5028755;28;20485;-57
2022/03/13 02:06:36;;;;;;;35.55;18.17;;;;;;;-5.69;59.66;96271.91;5028603;28;20542;-59
2022/03/13 02:09:05;;;;;;;31.23;17.90;;;;;;;-5.61;59.74;96254.47;5028721;28;20109;-61
2022/03/13 02:11:38;;;;;;;28.63;16.65;;;;;;;-5.41;59.85;96260.75;5028632;28;20025;-57
2022/03/13 02:14:06;;;;;;;32.92;17.67;;;;;;;-5.50;59.44;96264.75;5028814;28;20040;-59
2022/03/13 02:16:34;;;;;;;27.73;16.58;;;;;;;-5.63;59.37;96262.00;5028351;28;20064;-58
2022/03/13 02:19:02;;;;;;;27.77;17.38;;;;;;;-5.68;59.78;96266.09;5028684;28;20026;-57
2022/03/13 02:21:31;;;;;;;36.92;19.90;;;;;;;-6.11;58.87;96207.47;5027828;28;20033;-60
2022/03/13 02:24:00;;;;;;;33.40;17.40;;;;;;;-5.67;59.58;96265.28;5028369;28;20059;-60
2022/03/13 02:26:29;;;;;;;25.45;16.95;;;;;;;-5.54;58.79;96266.38;5028944;28;20029;-58
2022/03/13 02:28:55;;;;;;;30.95;17.50;;;;;;;-5.53;58.82;96268.03;5028184;28;20037;-60
2022/03/13 02:31:30;;;;;;;32.00;18.10;;;;;;;-5.51;58.73;96268.91;5028906;28;20078;-58
2022/03/13 02:33:57;;;;;;;30.98;18.23;;;;;;;-5.40;58.76;96277.53;5028393;28;20074;-61
2022/03/13 02:36:31;;;;;;;28.63;18.23;;;;;;;-5.32;58.26;96267.63;5028331;28;20029;-57
2022/03/13 02:38:58;;;;;;;30.67;16.63;;;;;;;-5.35;58.95;96270.06;5027881;28;20053;-57
2022/03/13 02:41:26;;;;;;;27.73;17.83;;;;;;;-5.25;58.56;96263.53;5028084;28;20032;-58
2022/03/13 02:43:52;;;;;;;27.30;16.98;;;;;;;-5.21;58.80;96266.16;5027942;28;20079;-58
2022/03/13 02:46:22;;;;;;;31.58;19.35;;;;;;;-5.17;58.29;96265.38;5028382;28;20025;-59
2022/03/13 02:48:48;;;;;;;45.55;21.55;;;;;;;-5.25;58.36;96259.34;5028142;28;20450;-58
2022/03/13 02:51:15;;;;;;;29.58;18.92;;;;;;;-5.22;58.95;96261.09;5027477;28;20101;-58
2022/03/13 02:53:40;;;;;;;31.05;18.63;;;;;;;-5.24;58.02;96261.06;5028412;28;20405;-58
2022/03/13 02:56:06;;;;;;;30.95;19.77;;;;;;;-5.22;58.38;96263.59;5028142;28;20033;-56
2022/03/13 02:58:32;;;;;;;27.83;18.58;;;;;;;-5.44;58.83;96223.00;5028238;28;20049;-58
2022/03/13 03:00:58;;;;;;;36.47;19.13;;;;;;;-5.28;58.79;96261.84;5028002;28;20547;-59
2022/03/13 03:03:24;;;;;;;29.95;18.80;;;;;;;-5.51;59.41;96236.25;5027812;28;20026;-60
2022/03/13 03:05:50;;;;;;;28.88;18.60;;;;;;;-5.26;59.25;96262.72;5028287;28;20029;-60
2022/03/13 03:08:17;;;;;;;33.67;20.50;;;;;;;-5.23;58.90;96264.41;5027856;28;20036;-61
2022/03/13 03:10:43;;;;;;;33.75;19.83;;;;;;;-5.24;60.14;96263.56;5028153;28;20048;-62
2022/03/13 03:13:10;;;;;;;34.38;21.10;;;;;;;-5.22;59.48;96253.53;5027846;28;20412;-59
2022/03/13 03:15:36;;;;;;;34.05;20.75;;;;;;;-5.07;60.06;96258.00;5027564;28;20033;-63
2022/03/13 03:18:04;;;;;;;35.50;21.55;;;;;;;-5.15;59.92;96247.78;5027855;28;20022;-57
2022/03/13 03:20:31;;;;;;;39.80;20.08;;;;;;;-5.11;59.03;96252.06;5027850;28;20523;-59
2022/03/13 03:22:56;;;;;;;31.50;19.77;;;;;;;-5.22;59.51;96226.72;5027320;28;20025;-61
2022/03/13 03:25:27;;;;;;;31.63;18.90;;;;;;;-5.16;59.20;96253.66;5028013;28;20508;-58
2022/03/13 03:27:55;;;;;;;32.60;20.50;;;;;;;-5.04;59.20;96255.53;5027621;28;20232;-58
2022/03/13 03:30:22;;;;;;;41.63;23.23;;;;;;;-5.17;59.12;96217.59;5027978;28;20030;-60
2022/03/13 03:32:49;;;;;;;40.47;21.75;;;;;;;-5.06;59.16;96240.41;5028215;28;20505;-62
2022/03/13 03:35:16;;;;;;;22.40;15.30;;;;;;;-5.40;58.64;96217.19;5031949;28;20323;-59
2022/03/13 03:37:42;;;;;;;26.27;15.38;;;;;;;-5.60;58.95;96204.25;5031740;28;20029;-60
2022/03/13 03:40:08;;;;;;;23.25;14.52;;;;;;;-5.61;59.20;96222.66;5031561;28;20053;-64
2022/03/13 03:42:35;;;;;;;24.15;15.15;;;;;;;-5.49;60.00;96242.16;5031948;28;20033;-58
2022/03/13 03:45:04;;;;;;;29.35;17.27;;;;;;;-5.54;59.74;96234.53;5031634;28;20500;-66
2022/03/13 03:47:29;;;;;;;29.08;18.95;;;;;;;-5.74;58.79;96213.19;5031576;28;20045;-65
2022/03/13 03:49:55;;;;;;;26.95;16.88;;;;;;;-5.67;58.86;96244.31;5031441;28;20053;-61
2022/03/13 03:52:20;;;;;;;24.88;15.65;;;;;;;-5.68;59.82;96252.69;5031176;28;20037;-59
2022/03/13 03:54:46;;;;;;;26.80;16.45;;;;;;;-5.68;59.34;96256.03;5031722;28;20029;-58
2022/03/13 03:57:11;;;;;;;24.45;15.10;;;;;;;-5.68;59.59;96247.66;5031471;28;20506;-55
2022/03/13 03:59:37;;;;;;;26.45;15.40;;;;;;;-5.61;58.64;96244.44;5031421;28;20022;-60
2022/03/13 04:02:03;;;;;;;27.58;15.13;;;;;;;-5.63;58.66;96248.59;5031496;28;20029;-63
2022/03/13 04:04:28;;;;;;;23.52;13.82;;;;;;;-5.75;58.59;96249.19;5030692;28;20115;-59
2022/03/13 04:06:53;;;;;;;18.73;12.43;;;;;;;-5.81;58.97;96234.00;5031316;28;20033;-58
2022/03/13 04:09:19;;;;;;;21.17;11.52;;;;;;;-5.93;57.74;96212.84;5031380;28;20408;-58
2022/03/13 04:11:46;;;;;;;17.80;9.90;;;;;;;-5.67;57.10;96222.56;5031467;28;20018;-58
2022/03/13 04:14:12;;;;;;;22.52;12.10;;;;;;;-5.47;56.34;96232.97;5031046;28;20172;-59
2022/03/13 04:16:38;;;;;;;23.67;10.73;;;;;;;-5.46;56.17;96232.19;5030879;28;20037;-55
2022/03/13 04:19:03;;;;;;;19.25;10.45;;;;;;;-5.49;56.89;96226.22;5031135;28;20536;-58
2022/03/13 04:21:30;;;;;;;15.18;10.55;;;;;;;-5.62;56.85;96225.16;5031098;28;20029;-58
2022/03/13 04:23:56;;;;;;;23.70;12.73;;;;;;;-5.51;57.81;96223.69;5030931;28;20030;-59
2022/03/13 04:26:25;;;;;;;22.60;12.25;;;;;;;-5.44;57.34;96210.41;5031218;28;20036;-60
2022/03/13 04:28:50;;;;;;;18.63;11.20;;;;;;;-5.44;57.32;96229.69;5030725;28;20035;-57
2022/03/13 04:31:17;;;;;;;21.95;11.15;;;;;;;-5.25;57.09;96223.31;5031201;28;20479;-61
2022/03/13 04:33:42;;;;;;;22.60;12.85;;;;;;;-5.13;55.67;96217.63;5030978;28;20030;-58
2022/03/13 04:36:13;;;;;;;21.10;12.13;;;;;;;-5.21;55.45;96184.84;5030782;28;20412;-56
2022/03/13 04:38:39;;;;;;;19.10;10.88;;;;;;;-5.02;55.58;96236.28;5030875;28;20037;-58
2022/03/13 04:41:05;;;;;;;19.38;11.88;;;;;;;-5.07;55.64;96227.81;5030618;28;20037;-57
2022/03/13 04:43:30;;;;;;;22.95;12.20;;;;;;;-5.09;56.04;96231.97;5031064;28;20021;-54
2022/03/13 04:45:56;;;;;;;20.20;11.25;;;;;;;-5.13;55.85;96236.13;5029790;28;20116;-56
2022/03/13 04:48:22;;;;;;;19.10;11.85;;;;;;;-5.03;55.26;96234.59;5030805;28;20435;-62
2022/03/13 04:50:48;;;;;;;16.83;12.02;;;;;;;-4.96;54.84;96208.72;5030724;28;20087;-59
2022/03/13 04:53:14;;;;;;;19.00;11.95;;;;;;;-4.93;54.99;96223.88;5030001;28;20451;-56
2022/03/13 04:55:41;;;;;;;17.17;11.80;;;;;;;-4.88;55.14;96222.28;5030564;28;20023;-58
2022/03/13 04:58:07;;;;;;;19.52;12.60;;;;;;;-5.30;56.33;96192.22;5030482;28;20021;-57
2022/03/13 05:00:33;;;;;;;19.73;11.45;;;;;;;-4.96;56.33;96228.84;5030666;28;20464;-58
2022/03/13 05:02:59;;;;;;;20.30;12.07;;;;;;;-5.12;55.42;96169.03;5030266;28;20017;-58
2022/03/13 05:05:25;;;;;;;18.67;11.70;;;;;;;-5.16;55.41;96165.63;5029827;28;20115;-57
2022/03/13 05:07:50;;;;;;;24.70;14.02;;;;;;;-4.73;55.16;96224.19;5030344;28;20037;-59
2022/03/13 05:10:18;;;;;;;28.65;14.40;;;;;;;-4.81;54.87;96235.78;5032975;28;20034;-58
2022/03/13 05:12:44;;;;;;;22.20;13.25;;;;;;;-4.96;55.61;96216.25;5049722;28;20021;-61
2022/03/13 05:15:10;;;;;;;19.98;12.90;;;;;;;-4.97;56.38;96237.19;5049714;28;20400;-58
2022/03/13 05:17:36;;;;;;;22.25;12.57;;;;;;;-4.84;55.22;96243.28;5050120;28;20017;-57
2022/03/13 05:20:01;;;;;;;21.48;13.68;;;;;;;-4.70;55.03;96246.06;5050072;28;20199;-60
2022/03/13 05:22:26;;;;;;;20.17;13.10;;;;;;;-4.67;55.93;96236.03;5049980;28;20032;-59
2022/03/13 05:24:52;;;;;;;21.13;13.38;;;;;;;-4.53;55.38;96237.06;5049716;28;20519;-59
2022/03/13 05:27:17;;;;;;;24.52;14.07;;;;;;;-4.31;54.52;96230.69;5049628;28;20025;-58
2022/03/13 05:29:43;;;;;;;21.85;13.68;;;;;;;-4.02;53.45;96239.47;5049915;28;20037;-57
2022/03/13 05:32:09;;;;;;;21.40;13.13;;;;;;;-3.96;53.39;96242.91;5049966;28;20512;-57
2022/03/13 05:34:34;;;;;;;22.00;12.60;;;;;;;-3.86;52.68;96246.41;5049750;28;20528;-57
2022/03/13 05:37:00;;;;;;;25.00;12.02;;;;;;;-3.63;52.05;96236.59;5049594;28;20037;-58
2022/03/13 05:39:25;;;;;;;21.00;13.77;;;;;;;-3.62;51.15;96228.22;5049255;28;20123;-58
2022/03/13 05:41:51;;;;;;;21.15;13.82;;;;;;;-3.58;51.62;96247.56;5049888;28;20105;-57
2022/03/13 05:44:17;;;;;;;20.20;13.48;;;;;;;-3.61;51.26;96222.31;5049520;28;20542;-58
2022/03/13 05:46:42;;;;;;;24.23;14.40;;;;;;;-3.33;51.40;96250.38;5049408;28;20107;-58
2022/03/13 05:49:08;;;;;;;23.48;13.80;;;;;;;-3.44;50.93;96216.63;5049378;28;20033;-57
2022/03/13 05:51:43;;;;;;;28.55;15.77;;;;;;;-3.43;51.50;96213.28;5049387;28;20025;-58
2022/03/13 05:54:09;;;;;;;24.85;16.42;;;;;;;-2.97;51.73;96241.50;5049066;28;20029;-58
2022/03/13 05:56:35;;;;;;;30.73;17.30;;;;;;;-2.83;51.42;96255.09;5048334;28;20028;-61
2022/03/13 05:59:00;;;;;;;29.60;17.05;;;;;;;-2.85;50.87;96228.16;5049430;28;20029;-60
2022/03/13 06:01:26;;;;;;;27.30;17.38;;;;;;;-2.97;51.43;96244.00;5049436;28;20403;-58
2022/03/13 06:03:53;;;;;;;28.92;17.95;;;;;;;-3.27;51.76;96244.56;5049101;28;20115;-59
2022/03/13 06:06:20;;;;;;;28.17;17.98;;;;;;;-3.22;52.38;96250.50;5049058;28;20111;-59
2022/03/13 06:08:46;;;;;;;30.83;17.95;;;;;;;-3.29;52.96;96249.59;5049068;28;20059;-58
2022/03/13 06:11:11;;;;;;;25.80;16.27;;;;;;;-3.29;52.32;96259.69;5035409;28;20030;-60
2022/03/13 06:13:37;;;;;;;28.33;18.55;;;;;;;-3.26;52.08;96269.81;5029307;28;20052;-57
2022/03/13 06:16:05;;;;;;;29.08;18.08;;;;;;;-3.30;51.74;96206.69;5029415;28;20094;-57
2022/03/13 06:18:34;;;;;;;34.30;19.80;;;;;;;-2.78;51.34;96260.19;5029365;28;20029;-63
2022/03/13 06:21:01;;;;;;;28.75;19.52;;;;;;;-3.00;51.43;96229.72;5029187;28;20107;-57
2022/03/13 06:23:28;;;;;;;26.05;17.60;;;;;;;-2.72;50.08;96217.31;5029038;28;20538;-56
2022/03/13 06:25:57;;;;;;;32.13;21.15;;;;;;;-2.51;49.35;96249.47;5029375;28;20390;-57
2022/03/13 06:28:23;;;;;;;29.42;19.92;;;;;;;-2.09;48.97;96259.88;5028821;28;20110;-58
2022/03/13 06:30:49;;;;;;;30.00;19.60;;;;;;;-2.23;48.33;96212.63;5028939;28;20451;-59
2022/03/13 06:33:14;;;;;;;32.40;20.30;;;;;;;-1.85;48.62;96259.16;5029087;28;20040;-59
2022/03/13 06:35:40;;;;;;;28.17;19.15;;;;;;;-1.90;47.64;96227.97;5028830;28;20123;-60
2022/03/13 06:38:06;;;;;;;30.42;19.08;;;;;;;-1.83;48.09;96260.00;5028701;28;20087;-57
2022/03/13 06:40:31;;;;;;;26.23;17.92;;;;;;;-1.75;48.18;96260.06;5028458;28;20026;-62
2022/03/13 06:42:58;;;;;;;27.77;18.95;;;;;;;-1.95;48.25;96267.50;5028689;28;20021;-57
2022/03/13 06:45:23;;;;;;;33.08;19.85;;;;;;;-2.28;49.16;96238.66;5028781;28;20033;-59
2022/03/13 06:47:49;;;;;;;29.75;20.45;;;;;;;-2.26;48.64;96268.19;5029538;28;20025;-57
2022/03/13 06:50:18;;;;;;;36.85;19.90;;;;;;;-2.13;48.78;96270.78;5029685;28;20499;-58
2022/03/13 06:52:48;;;;;;;31.27;18.63;;;;;;;-1.99;48.03;96256.53;5028807;28;20033;-59
2022/03/13 06:55:15;;;;;;;28.58;19.35;;;;;;;-2.22;47.29;96233.66;5028613;28;20029;-63
2022/03/13 06:57:41;;;;;;;34.17;19.08;;;;;;;-2.25;47.51;96253.84;5028581;28;20116;-64
2022/03/13 07:00:08;;;;;;;34.08;19.65;;;;;;;-2.38;48.32;96224.28;5028449;28;20673;-57
2022/03/13 07:02:34;;;;;;;29.58;19.90;;;;;;;-2.15;48.62;96250.53;5028529;28;20030;-60
2022/03/13 07:04:59;;;;;;;33.60;20.73;;;;;;;-2.13;48.18;96238.78;5032917;28;20059;-63
2022/03/13 07:07:25;;;;;;;43.13;19.40;;;;;;;-1.93;47.11;96233.00;5054315;28;20040;-59
2022/03/13 07:09:52;;;;;;;33.67;20.35;;;;;;;-1.96;47.62;96230.44;5061428;28;20086;-58
2022/03/13 07:12:19;;;;;;;31.02;21.13;;;;;;;-2.14;47.93;96218.56;5048075;28;20025;-60
2022/03/13 07:14:48;;;;;;;31.15;18.50;;;;;;;-2.07;48.31;96231.22;5045652;28;20134;-60
2022/03/13 07:17:16;;;;;;;33.63;18.83;;;;;;;-2.08;48.25;96214.38;5066309;28;20507;-59
2022/03/13 07:19:43;;;;;;;29.75;20.17;;;;;;;-2.05;48.02;96232.09;5068261;28;20035;-56
2022/03/13 07:22:14;;;;;;;31.35;20.92;;;;;;;-1.96;48.65;96243.94;5067907;28;20052;-57
2022/03/13 07:24:41;;;;;;;32.20;20.07;;;;;;;-1.59;47.26;96239.06;5067795;28;20024;-58
2022/03/13 07:27:07;;;;;;;30.38;20.08;;;;;;;-1.41;46.68;96240.81;5067877;28;20263;-58
2022/03/13 07:29:33;;;;;;;34.83;20.77;;;;;;;-1.53;45.67;96180.88;5067846;28;20028;-57
2022/03/13 07:31:59;;;;;;;32.92;20.02;;;;;;;-1.57;45.50;96185.94;5067958;28;20032;-57
2022/03/13 07:34:26;;;;;;;30.75;19.38;;;;;;;-1.55;46.36;96234.84;5068155;28;20377;-60
2022/03/13 07:36:52;;;;;;;29.17;18.23;;;;;;;-1.51;46.67;96245.00;5060192;28;20059;-57
2022/03/13 07:39:18;;;;;;;35.95;19.50;;;;;;;-1.97;45.99;96185.78;5037808;28;20150;-54
2022/03/13 07:41:45;;;;;;;28.58;19.08;;;;;;;-1.54;46.07;96246.63;5037242;28;20037;-61
2022/03/13 07:44:11;;;;;;;27.52;19.02;;;;;;;-1.15;45.56;96250.16;5037041;28;20451;-61
2022/03/13 07:46:37;;;;;;;34.40;19.20;;;;;;;-1.07;44.74;96240.88;5038372;28;20404;-55
2022/03/13 07:49:03;;;;;;;33.67;20.48;;;;;;;-1.12;44.40;96237.50;5036796;28;20029;-58
2022/03/13 07:51:29;;;;;;;35.95;20.85;;;;;;;-1.03;44.50;96249.31;5036733;28;20032;-57
2022/03/13 07:53:54;;;;;;;32.65;19.75;;;;;;;-1.28;44.54;96234.06;5037443;28;20082;-62
2022/03/13 07:56:20;;;;;;;33.53;20.13;;;;;;;-1.23;44.32;96199.53;5034072;28;20181;-57
2022/03/13 07:58:46;;;;;;;30.20;20.00;;;;;;;-0.87;44.08;96212.22;5029206;28;20099;-59
2022/03/13 08:01:12;;;;;;;37.20;21.35;;;;;;;-0.74;43.33;96203.78;5030263;28;20120;-60
2022/03/13 08:03:38;;;;;;;31.17;20.60;;;;;;;-1.05;43.40;96198.72;5029565;28;20116;-60
2022/03/13 08:06:04;;;;;;;29.45;18.00;;;;;;;-0.86;43.50;96204.63;5030888;28;20038;-59
2022/03/13 08:08:30;;;;;;;27.38;19.55;;;;;;;-0.90;43.23;96184.34;5025123;28;20038;-59
2022/03/13 08:10:57;;;;;;;30.95;20.58;;;;;;;-0.79;43.29;96186.06;5026316;28;20381;-58
2022/03/13 08:13:23;;;;;;;36.83;22.88;;;;;;;-0.46;42.94;96193.63;5033465;28;20069;-57
2022/03/13 08:15:52;;;;;;;30.65;23.38;;;;;;;-0.04;42.77;96197.78;5031205;28;20037;-64
2022/03/13 08:18:18;;;;;;;39.47;23.48;;;;;;;0.31;42.54;96193.44;5030787;28;20025;-57
2022/03/13 08:20:44;;;;;;;39.20;25.27;;;;;;;0.78;41.52;96186.47;5046193;28;20753;-58
2022/03/13 08:23:09;;;;;;;38.05;25.38;;;;;;;0.77;41.05;96157.69;5039410;28;20108;-57
2022/03/13 08:25:34;;;;;;;31.25;21.95;;;;;;;1.06;40.31;96164.25;5028256;28;20039;-59
2022/03/13 08:28:01;;;;;;;37.90;23.05;;;;;;;1.14;39.11;96182.81;5030292;28;20055;-57
2022/03/13 08:30:26;;;;;;;31.70;22.42;;;;;;;1.02;38.79;96134.66;5028340;28;20037;-59
2022/03/13 08:32:51;;;;;;;42.63;24.95;;;;;;;1.38;39.04;96186.88;5036378;28;20037;-62
2022/03/13 08:35:17;;;;;;;34.15;24.45;;;;;;;1.21;38.85;96193.78;5031986;28;20063;-59
2022/03/13 08:37:43;;;;;;;36.05;24.08;;;;;;;1.32;39.25;96191.16;5033399;28;20076;-62
2022/03/13 08:40:11;;;;;;;34.13;22.85;;;;;;;1.29;38.33;96179.31;5034007;28;20025;-59
2022/03/13 08:42:36;;;;;;;35.30;22.35;;;;;;;1.14;38.29;96149.78;5029971;28;20033;-57
2022/03/13 08:45:02;;;;;;;40.15;24.63;;;;;;;1.43;38.22;96192.75;5048970;28;20028;-61
2022/03/13 08:47:28;;;;;;;37.90;24.70;;;;;;;1.22;38.86;96190.41;5050676;28;20033;-57
2022/03/13 08:49:54;;;;;;;38.95;25.80;;;;;;;1.06;38.22;96124.44;5035678;28;20025;-62
2022/03/13 08:52:20;;;;;;;36.83;22.50;;;;;;;1.37;37.90;96164.84;5030245;28;20029;-58
2022/03/13 08:54:46;;;;;;;35.17;22.00;;;;;;;2.07;36.49;96159.09;5029944;28;20033;-59
2022/03/13 08:57:12;;;;;;;33.53;21.40;;;;;;;2.86;35.17;96157.19;5028579;28;20038;-64
2022/03/13 08:59:38;;;;;;;43.53;25.27;;;;;;;3.55;34.31;96162.09;5030490;28;20473;-62
2022/03/13 09:02:05;;;;;;;34.08;23.00;;;;;;;3.94;33.17;96168.19;5030438;28;20468;-58
2022/03/13 09:04:31;;;;;;;35.80;23.90;;;;;;;6.18;31.07;96152.88;5029573;28;20029;-65
2022/03/13 09:06:57;;;;;;;33.20;21.95;;;;;;;7.51;28.31;96135.19;5030077;28;20037;-59
2022/03/13 09:09:23;;;;;;;35.42;22.50;;;;;;;10.38;24.43;96128.50;5030032;28;20036;-61
2022/03/13 09:11:51;;;;;;;34.78;21.83;;;;;;;11.20;23.11;96107.56;5030282;28;20033;-61
2022/03/13 09:14:20;;;;;;;28.85;20.35;;;;;;;10.34;22.56;96070.28;5029983;28;20049;-59
2022/03/13 09:16:45;;;;;;;26.08;18.95;;;;;;;11.58;22.23;96097.94;5029790;28;20037;-60
2022/03/13 09:19:12;;;;;;;28.50;21.17;;;;;;;11.08;21.74;96116.69;5030217;28;20040;-61
2022/03/13 09:21:38;;;;;;;30.42;20.17;;;;;;;11.32;21.84;96119.88;5029971;28;20029;-62
2022/03/13 09:24:08;;;;;;;30.17;20.70;;;;;;;10.72;22.18;96103.78;5029866;28;20087;-59
2022/03/13 09:26:34;;;;;;;29.58;20.45;;;;;;;11.47;21.75;96086.47;5030232;28;20037;-62
2022/03/13 09:29:02;;;;;;;33.08;21.05;;;;;;;13.29;20.06;96107.97;5029728;28;20390;-61
2022/03/13 09:31:27;;;;;;;30.00;20.80;;;;;;;15.11;18.01;96040.00;5030023;28;20017;-64
2022/03/13 09:33:53;;;;;;;27.10;21.35;;;;;;;17.76;15.54;96021.53;5029911;28;20064;-60
2022/03/13 09:36:19;;;;;;;29.10;21.77;;;;;;;19.79;14.37;96021.13;5029368;28;20037;-62
2022/03/13 09:38:45;;;;;;;29.17;21.90;;;;;;;16.21;16.49;96089.03;5029405;28;20260;-63
2022/03/13 09:41:11;;;;;;;29.10;21.65;;;;;;;14.06;18.33;96095.75;5027806;28;20064;-65
2022/03/13 09:43:37;;;;;;;26.17;20.80;;;;;;;14.63;18.05;96093.19;5029638;28;20072;-63
2022/03/13 09:46:03;;;;;;;30.73;20.67;;;;;;;18.31;14.65;96076.53;5029602;28;20061;-61
2022/03/13 09:48:29;;;;;;;28.15;20.85;;;;;;;20.99;13.19;96020.44;5029534;28;20037;-64
2022/03/13 09:50:57;;;;;;;27.98;21.05;;;;;;;22.67;12.39;96035.75;5029379;28;20018;-61
2022/03/13 09:53:23;;;;;;;32.60;22.70;;;;;;;23.21;12.04;96054.25;5028963;28;20250;-60
2022/03/13 09:55:48;;;;;;;30.35;20.52;;;;;;;25.21;10.78;96056.94;5029138;28;20377;-62
2022/03/13 09:58:14;;;;;;;24.83;20.13;;;;;;;21.03;12.39;96047.22;5028740;28;20061;-60
2022/03/13 10:00:39;;;;;;;26.83;20.63;;;;;;;17.96;14.63;96070.44;5029210;28;20041;-60
2022/03/13 10:03:08;;;;;;;28.65;19.85;;;;;;;15.32;16.42;96074.97;5028916;28;20064;-60
2022/03/13 10:05:44;;;;;;;27.05;20.02;;;;;;;14.40;17.35;96076.41;5028631;28;20021;-61
2022/03/13 10:08:10;;;;;;;26.23;19.60;;;;;;;15.01;16.34;96066.56;5029326;28;20021;-62
2022/03/13 10:10:47;;;;;;;26.77;19.67;;;;;;;14.35;17.29;96021.38;5029087;28;20420;-60
2022/03/13 10:13:14;;;;;;;28.67;20.33;;;;;;;14.64;17.42;96057.66;5028369;28;20073;-60
2022/03/13 10:15:48;;;;;;;31.40;20.45;;;;;;;14.76;17.27;96059.50;5025509;28;20083;-66
2022/03/13 10:18:20;;;;;;;30.77;20.42;;;;;;;14.34;17.20;96056.00;5034715;28;20152;-64
2022/03/13 10:20:47;;;;;;;30.35;19.48;;;;;;;12.39;19.02;96026.63;5047839;28;20025;-66
2022/03/13 10:23:19;;;;;;;27.85;19.38;;;;;;;12.43;19.23;96064.31;5048787;28;20523;-64
2022/03/13 10:25:49;;;;;;;25.50;17.85;;;;;;;12.05;19.54;96068.03;5046531;28;20104;-57
2022/03/13 10:28:20;;;;;;;27.77;18.77;;;;;;;12.03;19.43;96062.09;5047886;28;20487;-60
2022/03/13 10:30:56;;;;;;;38.05;23.25;;;;;;;12.25;19.21;96064.41;5047159;28;20037;-60
2022/03/13 10:33:23;;;;;;;27.95;18.20;;;;;;;12.50;18.98;96055.31;5048293;28;20478;-71
2022/03/13 10:35:48;;;;;;;28.90;17.77;;;;;;;11.39;19.80;96061.81;5048581;28;20110;-68
2022/03/13 10:38:19;;;;;;;25.70;17.42;;;;;;;11.07;20.71;96040.19;5047711;28;20481;-68
2022/03/13 10:40:50;;;;;;;27.98;19.40;;;;;;;11.11;20.48;96067.50;5047639;28;20040;-69
2022/03/13 10:43:20;;;;;;;;;;;;;;;11.47;20.20;96051.13;5047818;28;20037;-68
2022/03/13 10:45:54;;;;;;;25.15;17.02;;;;;;;11.99;19.52;96041.69;5048113;28;19915;-67
2022/03/13 10:48:33;;;;;;;24.17;16.17;;;;;;;9.91;21.08;96049.78;5047661;28;20522;-66
2022/03/13 10:51:01;;;;;;;24.98;17.75;;;;;;;9.77;22.06;96046.97;5047907;28;20036;-68
2022/03/13 10:53:27;;;;;;;30.23;17.95;;;;;;;9.93;21.93;96017.88;5047727;28;20028;-68
2022/03/13 10:56:04;;;;;;;26.20;14.43;;;;;;;9.96;21.06;96042.69;5046663;28;20476;-71
2022/03/13 10:58:31;;;;;;;19.88;13.88;;;;;;;10.00;21.93;96049.41;5047545;28;20036;-68
2022/03/13 11:01:14;;;;;;;18.23;13.23;;;;;;;9.88;21.53;96047.34;5047678;28;20029;-70
2022/03/13 11:03:54;;;;;;;19.55;13.02;;;;;;;9.25;21.26;95993.38;5047792;28;20112;-69
2022/03/13 11:06:22;;;;;;;26.58;14.68;;;;;;;9.66;21.90;96040.56;5039690;28;20017;-67
2022/03/13 11:08:51;;;;;;;23.48;14.73;;;;;;;9.55;21.91;96040.19;5033570;28;20121;-67
2022/03/13 11:11:18;;;;;;;15.52;11.25;;;;;;;9.09;20.76;96035.22;5027249;28;20051;-68
2022/03/13 11:13:48;;;;;;;14.93;10.40;;;;;;;9.17;20.89;96017.72;5033759;28;20121;-69
2022/03/13 11:16:20;;;;;;;22.67;13.15;;;;;;;8.93;21.37;96011.00;5024917;28;20432;-70
2022/03/13 11:18:46;;;;;;;15.57;11.45;;;;;;;8.48;20.88;96028.19;5034151;28;20052;-67